Alpine Light — V7UJ6 — position and weather

sailwx.info

Track history (hours):
 
Tides and Currents Weather Stations Pressure Air Temp Water Temp Dewpoint Dewpoint Depression Visibility Wind Speed Wind Dir Waves Ship Positions

Alpine Light

Last reported at 2016-Aug-22 16:33 UTC. Time now 2016-Sep-26 20:51 UTC.
Position N 01°10' E 103°40'.
Warning: this ship's position is 35 days out of date.

Length 183 m; draft 8.6 m.

Type: Tanker. MMSI: 538003962.

Date/timePositionNaut miles runAvg speedWind from/ knotsBaromVisibWave heightAir tempDewpointWater temp
2016-Aug-22 16:33N 01°10' E 103°40'1110.6
2016-Aug-22 15:32N 01°12' E 103°51'1212.0
2016-Aug-22 14:33N 01°16' E 104°02'7 0.3
2016-Aug-21 14:29N 01°15' E 104°09'1010.4
2016-Aug-21 13:33N 01°14' E 103°60'1010.0
2016-Aug-21 12:33N 01°11' E 103°50'11 3.6
2016-Aug-21 09:32N 01°12' E 103°39'9 0.2
2016-Aug-19 13:25N 01°13' E 103°48'0 0.0
2016-Aug-19 12:31N 01°13' E 103°48'0 0.0
2016-Aug-19 11:28N 01°13' E 103°48'0 0.1
2016-Aug-19 10:28N 01°13' E 103°48'0 0.1
2016-Aug-19 09:25N 01°13' E 103°48'0 0.1
2016-Aug-19 08:25N 01°13' E 103°48'0 0.0
2016-Aug-19 06:31N 01°13' E 103°49'0 0.1
2016-Aug-19 05:31N 01°13' E 103°48'0 0.1
2016-Aug-19 04:31N 01°13' E 103°49'0 0.1
2016-Aug-19 03:31N 01°13' E 103°48'0 0.0
2016-Aug-19 02:25N 01°13' E 103°48'0 0.1
2016-Aug-19 00:31N 01°13' E 103°48'0 0.1
2016-Aug-18 22:25N 01°13' E 103°49'0 0.0
2016-Aug-18 20:31N 01°13' E 103°49'0 0.1
2016-Aug-18 19:25N 01°13' E 103°48'0 0.0
2016-Aug-18 18:13N 01°13' E 103°48'0 0.1
2016-Aug-18 17:25N 01°13' E 103°48'0 0.2
2016-Aug-18 16:16N 01°13' E 103°48'0 0.1
2016-Aug-18 15:25N 01°13' E 103°48'0 0.0
2016-Aug-18 14:07N 01°13' E 103°48'0 0.0
2016-Aug-18 13:25N 01°13' E 103°48'0 0.0
2016-Aug-18 12:31N 01°13' E 103°48'0 0.0
2016-Aug-18 11:31N 01°13' E 103°48'0 0.0
2016-Aug-18 10:31N 01°13' E 103°48'0 0.1
2016-Aug-18 09:19N 01°13' E 103°48'0 0.0
2016-Aug-18 08:31N 01°13' E 103°48'0 0.0
2016-Aug-18 06:25N 01°13' E 103°48'0 0.0
2016-Aug-18 04:13N 01°13' E 103°48'0 0.1
2016-Aug-18 03:31N 01°13' E 103°48'0 0.0
2016-Aug-18 02:25N 01°13' E 103°48'3 2.9
2016-Aug-18 01:33N 01°15' E 103°46'9210.2
2016-Aug-17 16:32N 01°50' E 102°22'  
Track history (hours):
 
Tides and Currents Weather Stations Pressure Air Temp Water Temp Dewpoint Dewpoint Depression Visibility Wind Speed Wind Dir Waves Ship Positions

Alpine Light

Last reported at 2016-Aug-22 16:33 UTC. Time now 2016-Sep-26 20:51 UTC.
Position N 01°10' E 103°40'.
Warning: this ship's position is 35 days out of date.

Length 183 m; draft 8.6 m.

Type: Tanker. MMSI: 538003962.

Date/timePositionNaut miles runAvg speedWind from/ knotsBaromVisibWave heightAir tempDewpointWater temp
2016-Aug-22 16:33N 01°10' E 103°40'1110.6
2016-Aug-22 15:32N 01°12' E 103°51'1212.0
2016-Aug-22 14:33N 01°16' E 104°02'7 0.3
2016-Aug-21 14:29N 01°15' E 104°09'1010.4
2016-Aug-21 13:33N 01°14' E 103°60'1010.0
2016-Aug-21 12:33N 01°11' E 103°50'11 3.6
2016-Aug-21 09:32N 01°12' E 103°39'9 0.2
2016-Aug-19 13:25N 01°13' E 103°48'0 0.0
2016-Aug-19 12:31N 01°13' E 103°48'0 0.0
2016-Aug-19 11:28N 01°13' E 103°48'0 0.1
2016-Aug-19 10:28N 01°13' E 103°48'0 0.1
2016-Aug-19 09:25N 01°13' E 103°48'0 0.1
2016-Aug-19 08:25N 01°13' E 103°48'0 0.0
2016-Aug-19 06:31N 01°13' E 103°49'0 0.1
2016-Aug-19 05:31N 01°13' E 103°48'0 0.1
2016-Aug-19 04:31N 01°13' E 103°49'0 0.1
2016-Aug-19 03:31N 01°13' E 103°48'0 0.0
2016-Aug-19 02:25N 01°13' E 103°48'0 0.1
2016-Aug-19 00:31N 01°13' E 103°48'0 0.1
2016-Aug-18 22:25N 01°13' E 103°49'0 0.0
2016-Aug-18 20:31N 01°13' E 103°49'0 0.1
2016-Aug-18 19:25N 01°13' E 103°48'0 0.0
2016-Aug-18 18:13N 01°13' E 103°48'0 0.1
2016-Aug-18 17:25N 01°13' E 103°48'0 0.2
2016-Aug-18 16:16N 01°13' E 103°48'0 0.1
2016-Aug-18 15:25N 01°13' E 103°48'0 0.0
2016-Aug-18 14:07N 01°13' E 103°48'0 0.0
2016-Aug-18 13:25N 01°13' E 103°48'0 0.0
2016-Aug-18 12:31N 01°13' E 103°48'0 0.0
2016-Aug-18 11:31N 01°13' E 103°48'0 0.0
2016-Aug-18 10:31N 01°13' E 103°48'0 0.1
2016-Aug-18 09:19N 01°13' E 103°48'0 0.0
2016-Aug-18 08:31N 01°13' E 103°48'0 0.0
2016-Aug-18 06:25N 01°13' E 103°48'0 0.0
2016-Aug-18 04:13N 01°13' E 103°48'0 0.1
2016-Aug-18 03:31N 01°13' E 103°48'0 0.0
2016-Aug-18 02:25N 01°13' E 103°48'3 2.9
2016-Aug-18 01:33N 01°15' E 103°46'9210.2
2016-Aug-17 16:32N 01°50' E 102°22'  

Dump ship's entire track history